Time;durP1;ratioP1;P1;durP2;ratioP2;P2;SDS_P1;SDS_P2;PMS_P1;PMS_P2;Temp;Humidity;BMP_temperature;BMP_pressure;BME280_temperature;BME280_humidity;BME280_pressure;Samples;Min_cycle;Max_cycle;Signal;HPM_P1;HPM_P2
2023/02/09 00:01:31;;;;;;;;;131.67;95.67;;;;;-5.24;95.69;102139.19;6286337;20;3708593;-46
2023/02/09 00:04:01;;;;;;;;;119.67;94.33;;;;;-5.03;95.70;102133.94;6287721;20;3691953;-47
2023/02/09 00:06:32;;;;;;;;;132.00;96.67;;;;;-5.03;94.07;102127.81;6285771;20;3685683;-48
2023/02/09 00:09:02;;;;;;;;;108.00;84.33;;;;;-5.48;93.48;102132.91;6320862;20;3684790;-52
2023/02/09 00:14:20;;;;;;;;;85.00;66.00;;;;;-5.71;93.24;102124.03;6319459;20;2886753;-48
2023/02/09 00:16:51;;;;;;;;;82.67;55.33;;;;;-5.87;93.35;102119.84;6286863;20;2885707;-48
2023/02/09 00:19:21;;;;;;;;;94.00;66.00;;;;;-5.72;93.35;102122.25;6319677;20;3667043;-50
2023/02/09 00:21:51;;;;;;;;;94.00;63.33;;;;;-5.61;93.25;102121.91;6318800;20;2896219;-49
2023/02/09 00:24:21;;;;;;;;;97.67;66.00;;;;;-5.90;94.26;102119.72;6317198;20;3666942;-47
2023/02/09 00:26:49;;;;;;;;;76.50;61.00;;;;;-5.71;94.83;102122.34;6316858;20;2502488;-49
2023/02/09 00:29:24;;;;;;;;;87.33;60.00;;;;;-5.50;94.73;102117.16;6287073;20;2899370;-51
2023/02/09 00:31:53;;;;;;;;;85.67;64.67;;;;;-5.61;94.78;102121.00;6316537;20;2899369;-50
2023/02/09 00:34:23;;;;;;;;;95.33;68.33;;;;;-5.62;94.72;102120.09;6317074;20;3657620;-49
2023/02/09 00:36:53;;;;;;;;;93.00;66.33;;;;;-5.86;94.90;102116.44;6316888;20;2910744;-49
2023/02/09 00:39:22;;;;;;;;;89.33;61.00;;;;;-5.72;94.99;102112.69;6316236;20;3665856;-47
2023/02/09 00:42:06;;;;;;;;;84.40;61.60;;;;;-5.68;94.84;102112.00;6315503;20;3648233;-47
2023/02/09 00:44:39;;;;;;;;;70.00;49.00;;;;;-6.01;95.15;102094.00;6286306;20;2895094;-47
2023/02/09 00:47:08;;;;;;;;;77.00;63.50;;;;;-5.87;94.61;102112.91;6281805;20;2502536;-50
2023/02/09 00:49:38;;;;;;;;;84.20;61.40;;;;;-5.74;94.60;102093.41;6284102;20;3631642;-50
2023/02/09 00:52:08;;;;;;;;;87.33;65.33;;;;;-5.72;94.61;102101.31;6286150;20;2899275;-48
2023/02/09 00:54:38;;;;;;;;;94.67;62.33;;;;;-5.81;94.09;102107.06;6314527;20;3662916;-49
2023/02/09 00:57:08;;;;;;;;;90.33;65.33;;;;;-5.74;94.50;102103.88;6318806;20;2912008;-49
2023/02/09 00:59:39;;;;;;;;;78.00;60.00;;;;;-5.90;95.18;102099.69;6316770;20;2870114;-49
2023/02/09 01:02:08;;;;;;;;;81.50;60.00;;;;;-5.70;94.77;102095.34;6283964;20;2883779;-46
2023/02/09 01:04:38;;;;;;;;;86.33;63.33;;;;;-5.70;94.58;102079.63;6285411;20;2896202;-51
2023/02/09 01:07:07;;;;;;;;;85.00;65.33;;;;;-5.98;94.09;102078.47;6316083;20;2881565;-48
2023/02/09 01:09:37;;;;;;;;;87.33;64.67;;;;;-6.11;95.10;102076.13;6316927;20;2889275;-49
2023/02/09 01:12:07;;;;;;;;;100.67;68.33;;;;;-6.21;95.85;102069.59;6317057;20;3670090;-48
2023/02/09 01:14:38;;;;;;;;;100.67;72.67;;;;;-5.83;95.75;102085.16;6318054;20;3665295;-49
2023/02/09 01:17:44;;;;;;;;;94.00;66.00;;;;;-5.72;95.18;102069.94;6318206;20;3661759;-49
2023/02/09 01:20:15;;;;;;;;;94.00;66.00;;;;;-5.63;94.65;102071.22;6313767;20;3669053;-52
2023/02/09 01:22:44;;;;;;;;;94.33;67.00;;;;;-5.63;94.43;102066.00;6315185;20;3658692;-49
2023/02/09 01:25:14;;;;;;;;;94.00;69.33;;;;;-5.78;94.61;102065.34;6318953;20;2892082;-48
2023/02/09 01:27:44;;;;;;;;;105.67;74.67;;;;;-5.56;94.88;102062.78;6319048;20;3678798;-51
2023/02/09 01:30:14;;;;;;;;;105.00;74.33;;;;;-5.74;94.59;102056.78;6317704;20;3684618;-50
2023/02/09 01:32:44;;;;;;;;;97.67;71.33;;;;;-5.72;95.21;102052.50;6316227;20;3649225;-49
2023/02/09 01:35:13;;;;;;;;;100.33;69.00;;;;;-5.83;95.63;102052.03;6314132;20;3651333;-51
2023/02/09 01:37:43;;;;;;;;;91.33;65.33;;;;;-5.85;95.73;102052.81;6318030;20;3667044;-49
2023/02/09 01:40:12;;;;;;;;;92.33;67.50;;;;;-5.80;95.75;102043.44;6313702;20;3663826;-46
2023/02/09 01:42:42;;;;;;;;;90.33;67.67;;;;;-6.05;95.56;102050.25;6314097;20;2900523;-47
2023/02/09 01:45:29;;;;;;;;;93.67;67.67;;;;;-5.79;95.19;102042.63;6314687;20;3659619;-49
2023/02/09 01:48:03;;;;;;;;;99.67;69.67;;;;;-5.78;93.67;102039.19;6317231;20;3667024;-49
2023/02/09 01:50:42;;;;;;;;;94.67;69.33;;;;;-5.75;93.92;102041.91;6312442;20;3653402;-49
2023/02/09 01:53:12;;;;;;;;;87.33;66.00;;;;;-6.18;94.36;102048.81;6313879;20;3660655;-49
2023/02/09 01:56:07;;;;;;;;;90.00;66.33;;;;;-6.08;94.33;102038.75;6314642;20;3659743;-49
2023/02/09 01:58:36;;;;;;;;;91.67;63.33;;;;;-6.21;93.76;102034.72;6315294;20;3669026;-48
2023/02/09 02:01:06;;;;;;;;;93.67;67.00;;;;;-6.55;94.23;102038.44;6313695;20;3664982;-50
2023/02/09 02:03:35;;;;;;;;;78.00;52.00;;;;;-6.42;94.00;102032.94;6313812;20;2883604;-47
2023/02/09 02:06:15;;;;;;;;;65.40;47.00;;;;;-6.66;94.72;102031.81;6283884;20;3630544;-51
2023/02/09 02:09:03;;;;;;;;;80.20;56.20;;;;;-6.59;95.93;102023.44;6278302;20;3639901;-50
2023/02/09 02:11:33;;;;;;;;;83.33;53.50;;;;;-6.42;95.90;102016.38;6278915;20;3665087;-48
2023/02/09 02:14:03;;;;;;;;;83.00;60.33;;;;;-6.31;96.02;102009.00;6315133;20;2904500;-46
2023/02/09 02:16:37;;;;;;;;;78.60;56.00;;;;;-6.45;95.60;102010.97;6311656;20;3634693;-47
2023/02/09 02:20:00;;;;;;;;;78.00;57.00;;;;;-6.64;95.99;102009.25;6284599;20;2501356;-51
2023/02/09 02:22:41;;;;;;;;;79.00;54.50;;;;;-6.65;96.02;102002.25;6279906;20;2894066;-48
2023/02/09 02:25:39;;;;;;;;;77.00;54.50;;;;;-6.35;96.01;102002.72;6281816;20;2502390;-47
2023/02/09 02:28:29;;;;;;;;;79.40;56.20;;;;;-6.33;95.63;102001.09;6280130;20;3650300;-46
2023/02/09 02:32:04;;;;;;;;;80.33;58.00;;;;;-6.25;95.85;102010.16;6282849;20;2896291;-49
2023/02/09 02:35:20;;;;;;;;;109.33;90.00;;;;;-6.44;95.76;102008.44;6311950;20;4461703;-49
2023/02/09 02:38:05;;;;;;;;;84.50;58.00;;;;;-6.32;96.23;102002.88;6312335;20;2900334;-47
2023/02/09 02:40:49;;;;;;;;;73.00;56.00;;;;;-6.43;96.42;102002.38;6277648;20;2885809;-50
2023/02/09 02:43:24;;;;;;;;;76.50;55.00;;;;;-6.36;96.03;102000.97;6278175;20;3596223;-52
2023/02/09 02:46:02;;;;;;;;;73.50;59.00;;;;;-6.44;96.74;102008.44;6278108;20;2865935;-51
2023/02/09 02:48:44;;;;;;;;;66.60;48.20;;;;;-6.59;97.14;102006.88;6280499;20;3640925;-48
2023/02/09 02:51:29;;;;;;;;;79.00;60.00;;;;;-6.18;96.90;102013.94;6277740;20;2895080;-47
2023/02/09 02:54:12;;;;;;;;;79.00;55.50;;;;;-6.21;96.29;102006.88;6280340;20;2887814;-46
2023/02/09 02:57:05;;;;;;;;;75.00;60.60;;;;;-6.26;96.21;102007.50;6280946;20;3619059;-49
2023/02/09 02:59:45;;;;;;;;;83.80;61.00;;;;;-6.59;96.32;102006.88;6276403;20;3650345;-47
2023/02/09 03:02:22;;;;;;;;;72.20;53.80;;;;;-6.90;96.22;102002.84;6279892;20;3648151;-50
2023/02/09 03:04:55;;;;;;;;;71.00;47.00;;;;;-6.72;96.88;102010.63;6281455;20;2894136;-48
2023/02/09 03:07:24;;;;;;;;;91.67;84.33;;;;;-6.41;96.32;102016.44;6278105;20;2903516;-50
2023/02/09 03:09:56;;;;;;;;;77.00;58.00;;;;;-6.48;96.06;102010.84;6309067;20;2884687;-48
2023/02/09 03:13:29;;;;;;;;;71.00;53.00;;;;;-6.71;95.40;102015.06;6275317;20;2501815;-50
2023/02/09 03:16:38;;;;;;;;;72.50;54.00;;;;;-7.09;96.05;102008.91;6274437;20;2502390;-47
2023/02/09 03:19:51;;;;;;;;;87.50;75.75;;;;;-6.82;95.79;102006.69;6276249;20;4433579;-47
2023/02/09 03:22:47;;;;;;;;;84.00;68.50;;;;;-7.00;94.93;102011.97;6306781;20;2504624;-48
2023/02/09 03:25:34;;;;;;;;;88.50;72.17;;;;;-7.28;94.67;102008.03;6275810;20;3679444;-50
2023/02/09 03:28:21;;;;;;;;;80.80;64.40;;;;;-7.29;94.15;102011.47;6310325;20;3636696;-51
2023/02/09 03:30:52;;;;;;;;;88.00;76.00;;;;;-7.45;94.33;102003.75;6280866;20;3667024;-50
2023/02/09 03:33:28;;;;;;;;;96.83;80.67;;;;;-7.30;94.87;102009.66;6310253;20;3692028;-51
2023/02/09 03:36:00;;;;;;;;;72.50;50.00;;;;;-7.02;95.13;102003.16;6309994;20;2887841;-48
2023/02/09 03:38:30;;;;;;;;;98.00;81.67;;;;;-7.22;95.47;102007.44;6276066;20;4449302;-51
2023/02/09 03:41:00;;;;;;;;;106.50;88.17;;;;;-7.05;96.32;102009.97;6308812;20;3696182;-53
2023/02/09 03:46:17;;;;;;;;;92.67;79.17;;;;;-7.08;95.58;102001.16;6313235;20;3682642;-50
2023/02/09 03:48:49;;;;;;;;;101.67;88.33;;;;;-7.12;95.41;102003.56;6313861;20;3685675;-49
2023/02/09 03:51:17;;;;;;;;;92.50;81.50;;;;;-7.16;94.68;102002.53;6309297;20;2903421;-49
2023/02/09 03:53:47;;;;;;;;;188.00;148.67;;;;;-7.02;94.07;102000.56;6279725;20;4495207;-51
2023/02/09 03:56:16;;;;;;;;;150.50;124.50;;;;;-7.07;93.62;102002.94;6310456;20;4497132;-46
2023/02/09 03:58:46;;;;;;;;;132.67;110.00;;;;;-6.94;93.22;101993.09;6311406;20;3716935;-52
2023/02/09 04:01:16;;;;;;;;;120.00;97.50;;;;;-6.82;93.30;101997.97;6275916;20;4486711;-48
2023/02/09 04:03:45;;;;;;;;;82.60;58.60;;;;;-7.04;93.06;101989.16;6311466;20;3650269;-51
2023/02/09 04:06:14;;;;;;;;;85.33;56.33;;;;;-7.15;93.98;101995.59;6280711;20;3668004;-47
2023/02/09 04:08:44;;;;;;;;;119.33;86.00;;;;;-7.12;93.89;101996.59;6311841;20;3706630;-48
2023/02/09 04:11:14;;;;;;;;;92.00;64.33;;;;;-6.94;93.44;101993.97;6278009;20;3672127;-47
2023/02/09 04:13:43;;;;;;;;;95.67;61.00;;;;;-7.19;94.30;101991.91;6312977;20;3660668;-49
2023/02/09 04:16:12;;;;;;;;;86.20;62.80;;;;;-7.15;94.92;101991.25;6313541;20;3659648;-48
2023/02/09 04:18:41;;;;;;;;;73.40;55.60;;;;;-7.06;95.78;101988.16;6280109;20;3621134;-47
2023/02/09 04:21:10;;;;;;;;;91.67;61.00;;;;;-6.96;95.76;101990.41;6275560;20;2912915;-46
2023/02/09 04:23:40;;;;;;;;;88.17;65.33;;;;;-6.89;95.54;101992.47;6305741;20;3664919;-47
2023/02/09 04:26:09;;;;;;;;;93.33;61.67;;;;;-6.97;95.57;102004.28;6313494;20;3673182;-49
2023/02/09 04:28:39;;;;;;;;;91.00;60.17;;;;;-6.91;95.00;102004.56;6310179;20;3671356;-50
2023/02/09 04:31:09;;;;;;;;;102.67;68.00;;;;;-7.38;95.31;101997.97;6304774;20;3677431;-50
2023/02/09 04:33:39;;;;;;;;;112.00;78.67;;;;;-7.35;95.22;101989.41;6312192;20;3688827;-48
2023/02/09 04:36:09;;;;;;;;;113.67;77.33;;;;;-7.19;95.46;101998.84;6316031;20;3683731;-49
2023/02/09 04:38:39;;;;;;;;;123.00;90.00;;;;;-7.15;95.65;101998.19;6285622;20;3718011;-47
2023/02/09 04:41:09;;;;;;;;;108.33;79.67;;;;;-7.18;95.12;102003.28;6279543;20;3685742;-48
2023/02/09 04:43:39;;;;;;;;;176.33;153.33;;;;;-7.09;95.44;102003.69;6314577;20;3714969;-48
2023/02/09 04:46:17;;;;;;;;;217.33;173.33;;;;;-7.14;95.78;102007.81;6282270;20;3677483;-49
2023/02/09 04:48:47;;;;;;;;;153.75;103.25;;;;;-7.33;96.84;102006.03;6320093;20;4476365;-51
2023/02/09 04:51:17;;;;;;;;;307.33;238.00;;;;;-7.35;96.59;101999.84;6316244;20;3758606;-49
2023/02/09 04:53:46;;;;;;;;;300.17;231.67;;;;;-7.35;95.98;102005.94;6282116;20;4503342;-48
2023/02/09 04:56:17;;;;;;;;;266.00;204.67;;;;;-7.29;96.09;101998.44;6318276;20;3706613;-47
2023/02/09 05:01:34;;;;;;;;;223.00;177.33;;;;;-7.42;95.07;101998.66;6315535;20;3702361;-50
2023/02/09 05:04:04;;;;;;;;;227.67;179.33;;;;;-7.69;94.69;102003.41;6319161;20;3705514;-48
2023/02/09 05:06:34;;;;;;;;;206.67;170.67;;;;;-7.75;94.58;102006.59;6318409;20;3700327;-49
2023/02/09 05:09:04;;;;;;;;;167.00;131.33;;;;;-7.76;95.07;102019.56;6285612;20;3736721;-48
2023/02/09 05:11:34;;;;;;;;;186.00;155.67;;;;;-7.44;95.39;102002.91;6282798;20;3726366;-52
2023/02/09 05:14:03;;;;;;;;;208.33;166.33;;;;;-7.53;95.23;102005.03;6284962;20;3717944;-50
2023/02/09 05:16:33;;;;;;;;;193.67;162.67;;;;;-7.70;95.95;102011.16;6285888;20;3728401;-46
2023/02/09 05:19:04;;;;;;;;;196.00;159.00;;;;;-7.61;95.97;102006.38;6286184;20;3705543;-49
2023/02/09 05:21:33;;;;;;;;;188.33;158.67;;;;;-7.60;95.79;102009.09;6284593;20;3716911;-52
2023/02/09 05:24:04;;;;;;;;;170.00;146.33;;;;;-7.49;96.33;102007.00;6285018;20;3726381;-51
2023/02/09 05:26:33;;;;;;;;;165.83;140.83;;;;;-7.35;96.33;102003.34;6278898;20;4493484;-49
2023/02/09 05:29:03;;;;;;;;;162.00;139.50;;;;;-7.30;96.35;102014.88;6313905;20;3665866;-49
2023/02/09 05:31:33;;;;;;;;;150.67;131.33;;;;;-7.23;95.60;102015.22;6317902;20;3717975;-51
2023/02/09 05:34:03;;;;;;;;;200.00;163.00;;;;;-7.25;95.67;102007.28;6278101;20;4491001;-47
2023/02/09 05:36:33;;;;;;;;;152.67;128.17;;;;;-7.83;94.61;102010.53;6313788;20;4513863;-50
2023/02/09 05:39:02;;;;;;;;;49.67;45.00;;;;;-7.98;94.83;102009.75;6283799;20;3602461;-49
2023/02/09 05:44:19;;;;;;;;;149.67;131.50;;;;;-7.88;95.43;102006.81;6310482;20;4500248;-49
2023/02/09 05:46:49;;;;;;;;;177.33;149.67;;;;;-7.80;95.59;102010.69;6313131;20;3719025;-50
2023/02/09 05:49:19;;;;;;;;;187.33;159.00;;;;;-7.63;96.22;102013.25;6284010;20;3730467;-46
2023/02/09 05:51:49;;;;;;;;;189.67;163.33;;;;;-7.60;95.72;102008.19;6280962;20;3713770;-48
2023/02/09 05:54:18;;;;;;;;;177.00;148.00;;;;;-7.59;96.18;102015.19;6282213;20;3714994;-52
2023/02/09 05:56:48;;;;;;;;;218.00;177.40;;;;;-7.31;96.22;102010.50;6278155;20;3702391;-50
2023/02/09 05:59:17;;;;;;;;;192.75;163.50;;;;;-7.13;95.64;102012.22;6280248;20;3583639;-47
2023/02/09 06:01:47;;;;;;;;;177.83;147.33;;;;;-7.26;94.96;102015.94;6310935;20;3722329;-46
2023/02/09 06:04:16;;;;;;;;;166.67;140.83;;;;;-7.21;94.85;102014.47;6310064;20;4496478;-47
2023/02/09 06:06:46;;;;;;;;;167.67;138.67;;;;;-7.35;95.48;102011.16;6310234;20;4499666;-49
2023/02/09 06:09:16;;;;;;;;;156.33;141.50;;;;;-7.26;95.63;101997.69;6311222;20;4490922;-48
2023/02/09 06:11:46;;;;;;;;;117.67;85.00;;;;;-7.34;94.76;102012.97;6317054;20;3699224;-49
2023/02/09 06:14:17;;;;;;;;;110.67;77.33;;;;;-7.41;93.74;102013.47;6284489;20;3685704;-50
2023/02/09 06:16:47;;;;;;;;;117.00;92.00;;;;;-7.64;93.37;102012.34;6315500;20;3695065;-50
2023/02/09 06:19:20;;;;;;;;;180.00;142.00;;;;;-7.61;91.67;102011.59;6280213;20;4501680;-49
2023/02/09 06:21:50;;;;;;;;;163.33;137.33;;;;;-7.73;92.64;102007.56;6316057;20;3726344;-48
2023/02/09 06:24:19;;;;;;;;;161.33;137.50;;;;;-7.66;92.82;102013.09;6279367;20;4491885;-47
2023/02/09 06:26:49;;;;;;;;;188.00;164.33;;;;;-7.46;92.03;102007.16;6316878;20;3725368;-48
2023/02/09 06:29:19;;;;;;;;;214.00;180.67;;;;;-7.38;91.01;102005.78;6282585;20;3725281;-50
2023/02/09 06:31:49;;;;;;;;;207.67;172.67;;;;;-6.81;89.77;102013.72;6281738;20;3709629;-48
2023/02/09 06:34:18;;;;;;;;;129.00;106.67;;;;;-5.16;85.69;102009.47;6314652;20;3713792;-48
2023/02/09 06:36:48;;;;;;;;;122.67;91.50;;;;;-5.37;82.94;102019.97;6281560;20;4466958;-51
2023/02/09 06:39:18;;;;;;;;;132.00;100.67;;;;;-5.17;82.62;102014.63;6314849;20;3722132;-49
2023/02/09 06:41:48;;;;;;;;;112.33;78.67;;;;;-4.87;81.27;102014.94;6281061;20;3676367;-49
2023/02/09 06:44:18;;;;;;;;;110.00;82.00;;;;;-4.95;81.48;102011.13;6315616;20;3554431;-50
2023/02/09 06:46:48;;;;;;;;;116.33;97.67;;;;;-5.17;83.22;102020.75;6315093;20;3706542;-48
2023/02/09 06:49:20;;;;;;;;;120.00;94.67;;;;;-4.25;82.00;102024.28;6280687;20;3706520;-52
2023/02/09 06:51:50;;;;;;;;;123.33;96.33;;;;;-3.40;80.72;102020.22;6280702;20;3708607;-50
2023/02/09 06:54:21;;;;;;;;;152.67;121.00;;;;;-3.64;78.84;102020.28;6272229;20;3715074;-50
2023/02/09 06:56:51;;;;;;;;;164.50;121.50;;;;;-2.47;77.98;102021.38;6276715;20;4458612;-50
2023/02/09 06:59:21;;;;;;;;;128.00;104.67;;;;;-2.47;76.38;102021.38;6312335;20;3692000;-48
2023/02/09 07:01:51;;;;;;;;;116.67;92.33;;;;;-0.64;68.34;102018.13;6281488;20;3705524;-48
2023/02/09 07:04:23;;;;;;;;;135.67;108.67;;;;;-1.30;68.02;102014.84;6280984;20;3717049;-50
2023/02/09 07:06:53;;;;;;;;;116.67;93.67;;;;;-0.65;65.04;102019.88;6281260;20;3692003;-49
2023/02/09 07:09:21;;;;;;;;;119.00;97.00;;;;;-0.39;63.18;102017.78;6284054;20;2814900;-49
2023/02/09 07:11:51;;;;;;;;;108.00;79.33;;;;;0.67;59.53;102022.41;6282491;20;3682676;-48
2023/02/09 07:14:21;;;;;;;;;109.33;87.67;;;;;1.15;58.51;102009.91;6313339;20;3699260;-48
2023/02/09 07:16:50;;;;;;;;;100.33;79.00;;;;;1.66;56.41;102012.41;6280122;20;3675277;-48
2023/02/09 07:19:21;;;;;;;;;125.33;108.00;;;;;2.53;54.00;102022.16;6280999;20;3710825;-45
2023/02/09 07:21:50;;;;;;;;;124.67;111.67;;;;;2.69;53.37;102020.53;6279705;20;3714868;-47
2023/02/09 07:24:21;;;;;;;;;137.00;116.25;;;;;2.52;53.08;102025.66;6281841;20;3701389;-48
2023/02/09 07:26:51;;;;;;;;;135.50;114.00;;;;;2.71;53.79;102027.59;6279527;20;4509707;-48
2023/02/09 07:29:21;;;;;;;;;127.33;111.00;;;;;2.51;53.59;102029.22;6279380;20;3722141;-47
2023/02/09 07:31:51;;;;;;;;;105.33;90.33;;;;;3.49;51.67;102028.16;6282098;20;3670087;-46
2023/02/09 07:34:20;;;;;;;;;96.00;77.33;;;;;3.62;50.23;102034.41;6312064;20;3689869;-48
2023/02/09 07:36:50;;;;;;;;;104.67;85.33;;;;;4.18;49.46;102038.16;6283443;20;3690966;-48
2023/02/09 07:39:20;;;;;;;;;106.67;94.33;;;;;3.69;50.78;102045.97;6277120;20;3681515;-48
2023/02/09 07:41:49;;;;;;;;;95.33;84.00;;;;;3.96;50.38;102043.41;6279132;20;3653352;-48
2023/02/09 07:44:19;;;;;;;;;83.67;62.00;;;;;3.87;48.96;102043.41;6313986;20;3651405;-50
2023/02/09 07:46:49;;;;;;;;;93.67;73.33;;;;;-0.72;63.27;102034.66;6310984;20;3680550;-46
2023/02/09 07:49:18;;;;;;;;;89.00;68.67;;;;;-0.77;66.65;102025.75;6282047;20;3648190;-51
2023/02/09 07:51:48;;;;;;;;;89.33;65.67;;;;;-1.58;70.24;102022.06;6310001;20;3635772;-48
2023/02/09 07:54:18;;;;;;;;;95.33;71.33;;;;;-1.45;71.61;102011.81;6313845;20;3655854;-49
2023/02/09 07:56:47;;;;;;;;;96.00;72.33;;;;;-0.89;71.36;102020.22;6311391;20;3648176;-50
2023/02/09 07:59:17;;;;;;;;;84.33;61.00;;;;;-1.58;71.74;102015.88;6313146;20;3652346;-46
2023/02/09 08:01:46;;;;;;;;;83.33;61.33;;;;;-1.44;73.26;102021.53;6312781;20;2903489;-49
2023/02/09 08:04:16;;;;;;;;;86.67;64.00;;;;;-0.82;71.71;102016.84;6313632;20;2899293;-49
2023/02/09 08:06:46;;;;;;;;;97.33;73.00;;;;;-0.56;69.87;102024.44;6312558;20;3640915;-50
2023/02/09 08:09:16;;;;;;;;;67.50;53.00;;;;;-0.19;69.41;102026.09;6314583;20;2867996;-53
2023/02/09 08:11:56;;;;;;;;;79.33;59.67;;;;;-0.81;72.26;102034.47;6281420;20;2885703;-52
2023/02/09 08:14:37;;;;;;;;;81.00;59.33;;;;;-0.73;72.84;102027.59;6312381;20;3656491;-53
2023/02/09 08:17:26;;;;;;;;;78.67;60.67;;;;;-0.63;72.95;102014.59;6314505;20;3641934;-49
2023/02/09 08:20:10;;;;;;;;;86.00;61.33;;;;;-0.43;72.24;102020.31;6316205;20;3658565;-50
2023/02/09 08:22:47;;;;;;;;;76.50;59.00;;;;;-0.22;72.91;102011.09;6315180;20;2878415;-51
2023/02/09 08:25:19;;;;;;;;;73.00;60.00;;;;;-0.56;71.80;102012.13;6283278;20;2500373;-49
2023/02/09 08:27:48;;;;;;;;;85.00;60.00;;;;;-0.91;71.44;102016.66;6282155;20;2913828;-50
2023/02/09 08:30:18;;;;;;;;;71.00;55.50;;;;;-0.28;70.15;102013.63;6283583;20;2878514;-51
2023/02/09 08:32:47;;;;;;;;;82.00;61.00;;;;;0.04;69.10;102018.63;6285117;20;2895075;-46
2023/02/09 08:35:18;;;;;;;;;87.00;62.67;;;;;-0.03;69.54;102017.66;6318665;20;3658577;-51
2023/02/09 08:37:46;;;;;;;;;76.00;58.50;;;;;-0.85;70.18;102016.78;6314386;20;2500416;-48
2023/02/09 08:40:16;;;;;;;;;80.67;59.67;;;;;-0.36;71.00;102016.97;6283802;20;3646197;-49
2023/02/09 08:42:46;;;;;;;;;86.00;66.00;;;;;-0.04;69.21;102014.97;6317861;20;2894373;-48
2023/02/09 08:45:15;;;;;;;;;80.50;60.50;;;;;0.31;67.99;102007.69;6316295;20;2872274;-52
2023/02/09 08:47:44;;;;;;;;;90.67;62.00;;;;;0.21;67.31;102011.94;6285877;20;3659752;-49
2023/02/09 08:50:15;;;;;;;;;79.00;60.67;;;;;-0.55;70.59;102013.06;6315655;20;2887938;-50
2023/02/09 08:52:45;;;;;;;;;85.33;63.00;;;;;0.09;70.24;102011.69;6316690;20;3650283;-48
2023/02/09 08:55:14;;;;;;;;;80.33;62.00;;;;;0.48;68.60;102015.03;6317486;20;2877501;-51
2023/02/09 08:57:44;;;;;;;;;92.00;69.33;;;;;0.19;68.85;102005.72;6317233;20;3652371;-49
2023/02/09 09:00:14;;;;;;;;;85.00;66.67;;;;;0.60;68.68;102010.81;6315071;20;3632711;-51
2023/02/09 09:02:44;;;;;;;;;103.00;86.33;;;;;0.99;66.31;102014.97;6315700;20;3692091;-46
2023/02/09 09:05:14;;;;;;;;;67.00;51.50;;;;;0.99;67.13;102012.34;6285760;20;2871143;-48
2023/02/09 09:07:42;;;;;;;;;71.00;55.50;;;;;1.00;66.21;102019.44;6282406;20;2500433;-51
2023/02/09 09:10:11;;;;;;;;;73.00;57.33;;;;;0.71;67.43;102020.69;6285911;20;3623309;-47
2023/02/09 09:12:41;;;;;;;;;83.00;58.00;;;;;0.76;66.76;102017.25;6312300;20;3669006;-47
2023/02/09 09:15:10;;;;;;;;;70.67;56.33;;;;;1.07;65.40;102026.56;6315486;20;2878509;-47
2023/02/09 09:17:40;;;;;;;;;70.33;52.67;;;;;1.27;65.35;102015.41;6318447;20;2898333;-49
2023/02/09 09:20:11;;;;;;;;;71.67;55.33;;;;;1.15;65.37;102031.09;6315305;20;2872153;-48
2023/02/09 09:22:40;;;;;;;;;66.33;50.00;;;;;1.30;63.12;102023.38;6310545;20;2875302;-50
2023/02/09 09:25:10;;;;;;;;;68.67;53.67;;;;;1.35;62.46;102026.09;6315621;20;2883711;-51
2023/02/09 09:27:41;;;;;;;;;67.50;52.00;;;;;1.47;61.88;102026.25;6315180;20;2869099;-50
2023/02/09 09:30:11;;;;;;;;;62.00;47.00;;;;;1.86;62.04;102030.28;6285735;20;2861769;-50
2023/02/09 09:32:40;;;;;;;;;69.00;55.50;;;;;1.63;62.93;102019.38;6286503;20;2863955;-51
2023/02/09 09:35:09;;;;;;;;;44.00;28.67;;;;;1.70;60.22;102018.59;6287096;20;3607659;-48
2023/02/09 09:37:37;;;;;;;;;60.00;49.50;;;;;1.53;61.78;102029.88;6314912;20;2500323;-52
2023/02/09 09:40:08;;;;;;;;;67.00;51.50;;;;;1.61;61.62;102024.69;6284883;20;2885715;-50
2023/02/09 09:42:43;;;;;;;;;63.00;46.33;;;;;1.69;59.78;102020.38;6282589;20;2881691;-49
2023/02/09 09:45:20;;;;;;;;;61.33;44.67;;;;;1.64;59.39;102026.50;6318613;20;2878545;-53
2023/02/09 09:47:50;;;;;;;;;65.50;49.50;;;;;1.32;60.98;102024.28;6313466;20;2875290;-50
2023/02/09 09:50:29;;;;;;;;;59.67;44.00;;;;;1.85;60.38;102026.75;6283518;20;2875278;-47
2023/02/09 09:53:32;;;;;;;;;60.50;47.50;;;;;1.67;60.32;102024.75;6315332;20;2857602;-52
2023/02/09 09:56:07;;;;;;;;;58.50;45.00;;;;;2.28;59.98;102019.25;6283967;20;2865891;-52
2023/02/09 09:58:42;;;;;;;;;62.50;47.50;;;;;2.58;58.89;102029.28;6279779;20;2866964;-49
2023/02/09 10:01:18;;;;;;;;;77.00;55.67;;;;;2.42;59.46;102025.59;6280884;20;3653374;-52
2023/02/09 10:03:48;;;;;;;;;54.00;38.00;;;;;2.56;58.35;102028.38;6283151;20;2878509;-49
2023/02/09 10:06:22;;;;;;;;;60.50;45.50;;;;;2.00;58.93;102019.84;6315143;20;2865941;-50
2023/02/09 10:09:02;;;;;;;;;48.33;38.00;;;;;2.30;59.16;102021.94;6282239;20;2881811;-49
2023/02/09 10:12:06;;;;;;;;;57.00;45.00;;;;;2.18;58.41;102025.34;6314421;20;2869064;-53
2023/02/09 10:14:34;;;;;;;;;57.00;44.00;;;;;1.84;60.58;102022.31;6282687;20;2865946;-51
2023/02/09 10:17:04;;;;;;;;;58.00;44.00;;;;;2.43;58.46;102015.88;6281720;20;2875109;-47
2023/02/09 10:19:34;;;;;;;;;56.33;43.33;;;;;2.70;57.98;102011.69;6280042;20;3628451;-49
2023/02/09 10:22:03;;;;;;;;;57.00;44.00;;;;;2.64;58.22;102004.56;6314715;20;2860761;-49
2023/02/09 10:24:35;;;;;;;;;43.33;35.67;;;;;2.70;56.62;102009.91;6283607;20;3633649;-53
2023/02/09 10:27:28;;;;;;;;;40.00;36.00;;;;;2.30;55.83;102004.25;6312232;20;2864980;-49
2023/02/09 10:30:27;;;;;;;;;45.67;35.33;;;;;2.60;55.35;102003.63;6314123;20;3627377;-50
2023/02/09 10:32:59;;;;;;;;;58.00;45.00;;;;;2.61;55.61;101993.94;6317587;20;2877379;-52
2023/02/09 10:35:57;;;;;;;;;49.00;41.00;;;;;2.96;56.11;101990.66;6278739;20;2495093;-52
2023/02/09 10:38:31;;;;;;;;;51.50;42.00;;;;;3.03;55.95;101987.19;6311217;20;2871143;-50
2023/02/09 10:41:01;;;;;;;;;56.00;41.33;;;;;2.53;55.35;101982.41;6281604;20;2868166;-50
2023/02/09 10:43:34;;;;;;;;;49.67;37.33;;;;;2.41;55.00;101976.09;6312841;20;3636852;-50
2023/02/09 10:46:16;;;;;;;;;51.00;42.00;;;;;2.82;56.37;101961.41;6311196;20;2841979;-48
2023/02/09 10:48:47;;;;;;;;;46.33;36.00;;;;;3.10;52.31;101967.75;6279702;20;3637759;-49
2023/02/09 10:51:28;;;;;;;;;46.67;38.00;;;;;3.17;53.20;101964.25;6311524;20;2867036;-47
2023/02/09 10:54:08;;;;;;;;;33.00;29.00;;;;;3.47;51.36;101962.63;6312733;20;2500278;-47
2023/02/09 10:56:45;;;;;;;;;36.00;33.00;;;;;3.42;51.94;101964.38;6280774;20;2500394;-50
2023/02/09 10:59:23;;;;;;;;;40.33;36.33;;;;;3.35;52.36;101952.84;6283431;20;2867091;-49
2023/02/09 11:02:01;;;;;;;;;38.50;33.50;;;;;3.46;51.76;101950.25;6312809;20;2859678;-50
2023/02/09 11:04:39;;;;;;;;;52.67;40.33;;;;;3.19;51.06;101951.00;6280244;20;2871176;-49
2023/02/09 11:07:20;;;;;;;;;36.50;35.50;;;;;3.19;52.26;101940.38;6314440;20;2851316;-52
2023/02/09 11:09:51;;;;;;;;;42.50;37.50;;;;;2.98;51.67;101942.03;6279953;20;2863804;-50
2023/02/09 11:12:21;;;;;;;;;39.50;29.50;;;;;3.48;51.02;101945.84;6279534;20;2869025;-48
2023/02/09 11:14:51;;;;;;;;;48.00;39.67;;;;;3.52;50.17;101935.19;6283627;20;2860877;-48
2023/02/09 11:17:38;;;;;;;;;37.67;36.33;;;;;3.19;51.33;101930.66;6312325;20;2874274;-51
2023/02/09 11:20:32;;;;;;;;;46.33;36.67;;;;;3.76;51.68;101933.50;6309997;20;3614870;-50
2023/02/09 11:23:48;;;;;;;;;47.00;42.50;;;;;3.52;51.57;101929.00;6311122;20;2848295;-51
2023/02/09 11:27:25;;;;;;;;;43.00;36.00;;;;;3.24;51.18;101928.03;6280174;20;2860690;-47
2023/02/09 11:30:45;;;;;;;;;45.67;37.00;;;;;3.51;52.52;101916.63;6280457;20;3629446;-49
2023/02/09 11:34:02;;;;;;;;;41.67;39.33;;;;;3.80;52.04;101914.03;6312903;20;2856681;-52
2023/02/09 11:37:15;;;;;;;;;45.33;35.67;;;;;3.58;52.06;101915.78;6311634;20;3615942;-51